Time;durP1;ratioP1;P1;durP2;ratioP2;P2;SDS_P1;SDS_P2;PMS_P1;PMS_P2;Temp;Humidity;BMP_temperature;BMP_pressure;BME280_temperature;BME280_humidity;BME280_pressure;Samples;Min_cycle;Max_cycle;Signal;HPM_P1;HPM_P2
2024/01/20 00:00:14;;;;;;;24.20;10.00;;;;;;;5.70;47.21;99945.14;108115;1252;73949;-67
2024/01/20 00:02:42;;;;;;;20.90;9.40;;;;;;;5.85;47.20;99947.63;108145;1253;70286;-65
2024/01/20 00:05:11;;;;;;;21.40;9.90;;;;;;;5.85;47.12;99971.50;108199;1252;71200;-67
2024/01/20 00:07:40;;;;;;;22.00;10.10;;;;;;;5.80;47.37;99983.61;108100;1253;59727;-66
2024/01/20 00:10:11;;;;;;;26.10;9.90;;;;;;;5.81;47.39;99972.44;108182;1253;60397;-65
2024/01/20 00:12:40;;;;;;;20.90;9.00;;;;;;;5.79;47.31;99975.80;108058;1253;72908;-65
2024/01/20 00:15:09;;;;;;;21.40;9.10;;;;;;;5.71;47.57;99992.14;108176;1251;68730;-62
2024/01/20 00:17:37;;;;;;;21.70;9.70;;;;;;;5.72;47.42;100003.27;108043;1254;71456;-63
2024/01/20 00:20:07;;;;;;;21.50;10.20;;;;;;;5.67;47.77;100013.65;108237;1252;60818;-67
2024/01/20 00:22:35;;;;;;;22.50;10.40;;;;;;;5.57;47.84;100018.01;108228;1251;60358;-68
2024/01/20 00:25:03;;;;;;;19.80;9.00;;;;;;;5.59;48.10;100006.84;108255;1251;73352;-68
2024/01/20 00:27:31;;;;;;;21.60;10.60;;;;;;;5.63;48.05;99992.13;108137;1254;69425;-66
2024/01/20 00:29:59;;;;;;;20.50;9.20;;;;;;;5.69;48.28;99997.95;108194;1256;71806;-67
2024/01/20 00:32:28;;;;;;;23.30;10.40;;;;;;;5.74;48.36;99994.53;108197;1256;60419;-67
2024/01/20 00:34:56;;;;;;;26.90;11.50;;;;;;;5.76;48.14;100006.70;108177;1251;60457;-67
2024/01/20 00:37:36;;;;;;;24.60;10.70;;;;;;;5.78;48.09;100018.86;108166;1251;74008;-66
2024/01/20 00:40:05;;;;;;;26.10;11.60;;;;;;;5.75;48.25;100024.81;108198;1252;69200;-66
2024/01/20 00:42:32;;;;;;;25.00;10.70;;;;;;;5.74;48.20;100026.95;108205;1253;71715;-67
2024/01/20 00:45:00;;;;;;;23.60;11.50;;;;;;;5.65;48.40;100028.31;108020;1253;60831;-67
2024/01/20 00:47:27;;;;;;;24.30;10.10;;;;;;;5.66;48.26;100022.02;108160;1251;60329;-66
2024/01/20 00:49:55;;;;;;;22.70;10.50;;;;;;;5.68;48.37;100014.68;108167;1254;73983;-66
2024/01/20 00:52:23;;;;;;;26.20;11.10;;;;;;;5.62;48.36;100007.14;108191;1251;72287;-67
2024/01/20 00:54:51;;;;;;;26.90;12.00;;;;;;;5.57;48.77;100010.86;108130;1252;72931;-67
2024/01/20 00:57:18;;;;;;;25.20;10.60;;;;;;;5.52;48.84;100012.71;108139;1253;61649;-65
2024/01/20 00:59:47;;;;;;;30.10;11.90;;;;;;;5.40;49.04;100028.08;108223;1251;60300;-65
2024/01/20 01:02:16;;;;;;;25.30;10.10;;;;;;;5.38;49.04;100036.98;108223;1253;73794;-66
2024/01/20 01:04:45;;;;;;;23.50;10.30;;;;;;;5.41;49.25;100037.78;108234;1252;70009;-65
2024/01/20 01:07:12;;;;;;;28.30;10.80;;;;;;;5.45;49.22;100039.29;108184;1253;72308;-66
2024/01/20 01:09:40;;;;;;;22.00;11.00;;;;;;;5.47;49.14;100033.52;108113;1256;90504;-66
2024/01/20 01:14:03;;;;;;;24.40;10.40;;;;;;;4.18;52.66;100038.23;104820;1292;600050;-66
2024/01/20 01:16:31;;;;;;;22.30;11.50;;;;;;;5.28;50.03;100025.50;107280;1270;61667;-67
2024/01/20 01:18:58;;;;;;;25.40;12.60;;;;;;;5.53;49.49;100026.27;107268;1266;60100;-67
2024/01/20 01:21:26;;;;;;;28.00;10.90;;;;;;;5.58;49.31;100027.75;107291;1266;71053;-67
2024/01/20 01:23:53;;;;;;;24.80;10.50;;;;;;;5.60;49.32;100034.52;107283;1265;68654;-66
2024/01/20 01:26:22;;;;;;;25.70;11.30;;;;;;;5.64;49.47;100033.91;107272;1266;70663;-65
2024/01/20 01:28:50;;;;;;;22.80;10.70;;;;;;;5.56;49.67;100039.28;107332;1262;151033;-65
2024/01/20 01:31:17;;;;;;;25.40;11.50;;;;;;;5.60;49.63;100040.77;107413;1263;60120;-66
2024/01/20 01:33:45;;;;;;;29.10;12.20;;;;;;;5.59;49.75;100043.58;107373;1268;71715;-66
2024/01/20 01:36:13;;;;;;;28.10;13.00;;;;;;;5.53;49.96;100039.86;107404;1263;70734;-68
2024/01/20 01:38:40;;;;;;;25.50;12.00;;;;;;;5.52;49.81;100036.56;107348;1263;73102;-67
2024/01/20 01:41:09;;;;;;;29.30;13.20;;;;;;;5.43;50.19;100034.63;107289;1263;60659;-67
2024/01/20 01:43:36;;;;;;;33.20;14.10;;;;;;;5.31;50.36;100037.98;107333;1264;60022;-67
2024/01/20 01:46:04;;;;;;;29.20;13.00;;;;;;;5.36;50.26;100037.20;107309;1266;73118;-67
2024/01/20 01:48:33;;;;;;;30.70;13.50;;;;;;;5.33;50.48;100040.89;107362;1266;70028;-66
2024/01/20 01:51:04;;;;;;;33.50;13.20;;;;;;;5.37;50.38;100046.77;107300;1264;71637;-66
2024/01/20 01:53:32;;;;;;;;;;;;;;;5.39;50.44;100055.95;107280;1264;60696;-65
2024/01/20 01:56:00;;;;;;;28.20;12.80;;;;;;;5.43;50.36;100053.97;107283;1268;59937;-68
2024/01/20 01:58:28;;;;;;;28.50;13.70;;;;;;;5.42;50.33;100057.45;107766;1255;73097;-66
2024/01/20 02:00:55;;;;;;;35.60;15.40;;;;;;;5.38;50.43;100062.05;107801;1255;69956;-66
2024/01/20 02:03:24;;;;;;;31.60;14.50;;;;;;;5.37;50.48;100060.67;107728;1260;71356;-67
2024/01/20 02:05:51;;;;;;;29.70;12.90;;;;;;;5.32;50.42;100069.30;107684;1257;62282;-67
2024/01/20 02:08:19;;;;;;;30.80;14.30;;;;;;;5.24;50.71;100072.56;107598;1256;59645;-68
2024/01/20 02:10:47;;;;;;;33.20;15.00;;;;;;;5.27;50.46;100077.55;107737;1257;72070;-65
2024/01/20 02:13:15;;;;;;;33.40;14.50;;;;;;;5.35;50.59;100079.53;107773;1257;68886;-66
2024/01/20 02:15:42;;;;;;;32.30;14.50;;;;;;;5.29;50.58;100086.75;107786;1256;72637;-66
2024/01/20 02:18:10;;;;;;;31.20;14.40;;;;;;;5.30;50.56;100089.17;107780;1260;60455;-66
2024/01/20 02:20:38;;;;;;;27.20;13.20;;;;;;;5.28;50.81;100091.48;107829;1256;59032;-66
2024/01/20 02:23:05;;;;;;;33.60;16.00;;;;;;;5.24;50.79;100092.75;107755;1256;72286;-67
2024/01/20 02:25:33;;;;;;;28.60;14.90;;;;;;;5.19;50.96;100091.77;107743;1256;68928;-67
2024/01/20 02:28:00;;;;;;;33.70;13.40;;;;;;;5.26;50.67;100094.11;107713;1258;71406;-68
2024/01/20 02:30:30;;;;;;;32.80;14.20;;;;;;;5.28;50.76;100106.62;107918;1253;61651;-67
2024/01/20 02:32:58;;;;;;;31.90;15.10;;;;;;;5.36;50.75;100108.05;107919;1253;59513;-66
2024/01/20 02:35:25;;;;;;;39.30;15.70;;;;;;;5.35;50.68;100111.73;107943;1253;73024;-67
2024/01/20 02:37:53;;;;;;;34.10;14.80;;;;;;;5.38;50.74;100111.85;107940;1258;69477;-67
2024/01/20 02:40:20;;;;;;;39.90;17.60;;;;;;;5.43;50.59;100120.13;107957;1253;72394;-65
2024/01/20 02:42:48;;;;;;;33.80;15.30;;;;;;;5.45;50.54;100120.45;107960;1256;61706;-67
2024/01/20 02:45:15;;;;;;;32.40;14.80;;;;;;;5.41;50.44;100130.27;107924;1253;60468;-67
2024/01/20 02:47:43;;;;;;;35.60;15.90;;;;;;;5.42;50.44;100129.72;107893;1253;71792;-66
2024/01/20 02:50:12;;;;;;;34.20;14.60;;;;;;;5.37;50.41;100133.11;108052;1259;71454;-67
2024/01/20 02:52:39;;;;;;;36.40;17.20;;;;;;;5.46;50.19;100133.14;107860;1253;72650;-67
2024/01/20 02:55:08;;;;;;;40.80;15.90;;;;;;;5.41;50.53;100137.91;108017;1258;60666;-66
2024/01/20 02:57:35;;;;;;;37.30;16.20;;;;;;;5.32;50.43;100135.09;107927;1253;59935;-67
2024/01/20 03:00:08;;;;;;;38.20;17.60;;;;;;;5.50;50.33;100140.38;107901;1254;72170;-66
2024/01/20 03:02:35;;;;;;;43.40;16.60;;;;;;;5.52;50.10;100147.66;107836;1254;68904;-66
2024/01/20 03:05:03;;;;;;;34.20;15.70;;;;;;;5.51;50.15;100151.52;107868;1254;71417;-66
2024/01/20 03:07:31;;;;;;;41.80;19.10;;;;;;;5.49;50.19;100153.46;107948;1256;60438;-67
2024/01/20 03:09:58;;;;;;;39.20;17.70;;;;;;;4.97;50.96;100162.93;107872;1254;59415;-68
2024/01/20 03:12:26;;;;;;;36.80;17.20;;;;;;;4.94;51.31;100168.36;107647;1255;71760;-66
2024/01/20 03:14:54;;;;;;;42.60;18.80;;;;;;;4.94;51.01;100170.98;107850;1256;70286;-68
2024/01/20 03:17:21;;;;;;;43.50;18.10;;;;;;;5.13;50.56;100172.09;107885;1256;71970;-67
2024/01/20 03:19:49;;;;;;;41.70;18.90;;;;;;;5.19;50.37;100177.23;107828;1256;61672;-67
2024/01/20 03:22:17;;;;;;;43.00;18.40;;;;;;;5.26;50.02;100180.63;107848;1256;59405;-66
2024/01/20 03:24:46;;;;;;;41.60;18.80;;;;;;;5.36;49.79;100192.51;107914;1255;73068;-66
2024/01/20 03:27:14;;;;;;;40.80;18.10;;;;;;;5.30;49.79;100198.14;107868;1256;70113;-68
2024/01/20 03:29:41;;;;;;;46.50;19.90;;;;;;;5.08;49.85;100202.28;107859;1256;71516;-68
2024/01/20 03:32:09;;;;;;;45.70;19.50;;;;;;;4.75;50.67;100198.70;107889;1256;61803;-67
2024/01/20 03:34:37;;;;;;;43.80;17.80;;;;;;;4.70;50.85;100198.75;107939;1255;60022;-65
2024/01/20 03:37:05;;;;;;;41.60;18.50;;;;;;;4.81;50.78;100199.50;107953;1256;71835;-66
2024/01/20 03:39:32;;;;;;;49.50;19.70;;;;;;;4.89;50.59;100200.95;107921;1254;70169;-65
2024/01/20 03:42:00;;;;;;;47.70;19.20;;;;;;;5.14;49.92;100195.08;107932;1254;71179;-66
2024/01/20 03:44:28;;;;;;;42.60;18.50;;;;;;;4.90;50.26;100195.05;107883;1254;60513;-66
2024/01/20 03:46:56;;;;;;;44.20;18.90;;;;;;;4.80;50.39;100199.33;107905;1256;60231;-66
2024/01/20 03:49:23;;;;;;;41.80;18.60;;;;;;;4.71;50.60;100206.23;107910;1254;71794;-67
2024/01/20 03:51:51;;;;;;;39.60;17.90;;;;;;;4.80;50.41;100212.20;107927;1259;68946;-65
2024/01/20 03:54:19;;;;;;;41.10;18.20;;;;;;;4.72;50.43;100224.48;107877;1256;71303;-66
2024/01/20 03:56:47;;;;;;;44.90;19.40;;;;;;;4.72;50.40;100225.16;107948;1256;61674;-67
2024/01/20 03:59:14;;;;;;;40.00;17.40;;;;;;;4.70;50.19;100226.61;107976;1254;59452;-65
2024/01/20 04:01:42;;;;;;;45.40;18.20;;;;;;;4.56;50.45;100227.44;108009;1256;73294;-66
2024/01/20 04:04:09;;;;;;;44.00;20.00;;;;;;;4.69;50.30;100231.83;107917;1254;69193;-66
2024/01/20 04:06:37;;;;;;;44.90;19.90;;;;;;;4.62;50.27;100237.11;107865;1256;71426;-67
2024/01/20 04:09:04;;;;;;;39.00;19.20;;;;;;;4.56;50.58;100243.43;107823;1255;61715;-66
2024/01/20 04:11:32;;;;;;;51.50;20.10;;;;;;;4.61;50.50;100248.42;107856;1254;60198;-64
2024/01/20 04:13:59;;;;;;;36.30;16.90;;;;;;;4.72;50.18;100254.05;107865;1256;71704;-67
2024/01/20 04:16:26;;;;;;;43.30;18.60;;;;;;;4.65;50.55;100255.17;107917;1256;69971;-68
2024/01/20 04:18:54;;;;;;;42.60;18.80;;;;;;;4.62;50.27;100256.77;107923;1255;72751;-66
2024/01/20 04:21:22;;;;;;;43.00;17.90;;;;;;;4.67;49.90;100261.05;107889;1256;61938;-66
2024/01/20 04:23:49;;;;;;;41.60;17.60;;;;;;;4.74;49.70;100262.71;107892;1257;60438;-66
2024/01/20 04:26:17;;;;;;;38.10;16.80;;;;;;;4.73;49.74;100266.38;107901;1254;71817;-66
2024/01/20 04:28:44;;;;;;;38.50;16.80;;;;;;;4.95;49.59;100266.99;107916;1254;70771;-67
2024/01/20 04:31:12;;;;;;;41.50;17.40;;;;;;;5.20;48.82;100268.42;107913;1255;71165;-64
2024/01/20 04:33:40;;;;;;;41.10;16.00;;;;;;;5.01;48.83;100267.97;107933;1253;60722;-65
2024/01/20 04:36:09;;;;;;;39.50;17.80;;;;;;;5.00;48.96;100274.94;107896;1258;59494;-66
2024/01/20 04:38:37;;;;;;;39.10;17.80;;;;;;;5.07;48.91;100281.47;107871;1254;71871;-67
2024/01/20 04:41:04;;;;;;;38.50;17.50;;;;;;;5.11;48.81;100280.90;107899;1257;69402;-65
2024/01/20 04:43:32;;;;;;;45.70;19.90;;;;;;;5.24;48.61;100287.17;107857;1258;71340;-65
2024/01/20 04:45:59;;;;;;;42.00;17.10;;;;;;;5.23;48.57;100289.98;107882;1256;61733;-63
2024/01/20 04:48:27;;;;;;;37.90;16.60;;;;;;;5.22;48.66;100292.96;107898;1254;60001;-65
2024/01/20 04:50:54;;;;;;;43.50;18.70;;;;;;;4.95;49.08;100295.02;107883;1256;73065;-66
2024/01/20 04:53:22;;;;;;;46.70;19.50;;;;;;;4.78;49.37;100297.80;107887;1258;70028;-64
2024/01/20 04:55:49;;;;;;;43.20;18.90;;;;;;;4.67;49.75;100297.40;107935;1257;70468;-66
2024/01/20 04:58:17;;;;;;;44.80;18.70;;;;;;;4.66;49.77;100309.05;107907;1254;61671;-66
2024/01/20 05:00:44;;;;;;;44.50;18.40;;;;;;;4.66;49.95;100307.16;107950;1256;59990;-65
2024/01/20 05:03:12;;;;;;;48.00;20.90;;;;;;;4.66;49.75;100306.27;108027;1255;71835;-67
2024/01/20 05:05:40;;;;;;;47.60;19.50;;;;;;;4.65;50.08;100308.55;107951;1254;68848;-66
2024/01/20 05:08:07;;;;;;;52.70;20.30;;;;;;;4.64;50.30;100305.62;107926;1256;71938;-65
2024/01/20 05:10:35;;;;;;;46.30;19.30;;;;;;;4.67;50.24;100301.23;107920;1254;60392;-65
2024/01/20 05:13:03;;;;;;;51.30;19.40;;;;;;;4.71;50.17;100305.70;107943;1258;59973;-67
2024/01/20 05:15:31;;;;;;;59.50;21.90;;;;;;;4.70;50.19;100310.23;107953;1258;73477;-66
2024/01/20 05:17:59;;;;;;;45.90;19.30;;;;;;;4.65;50.28;100318.98;107991;1254;69493;-63
2024/01/20 05:20:27;;;;;;;47.70;21.30;;;;;;;4.61;50.42;100331.02;108090;1253;71118;-65
2024/01/20 05:22:55;;;;;;;50.70;19.70;;;;;;;4.65;50.21;100327.68;107867;1254;60469;-67
2024/01/20 05:25:22;;;;;;;45.40;19.30;;;;;;;4.66;50.46;100329.77;107958;1255;60390;-66
2024/01/20 05:27:49;;;;;;;53.30;21.70;;;;;;;4.70;50.54;100335.81;108080;1254;73920;-67
2024/01/20 05:30:17;;;;;;;43.60;19.10;;;;;;;4.69;50.20;100340.85;107954;1254;70472;-65
2024/01/20 05:32:45;;;;;;;48.30;20.70;;;;;;;4.68;50.33;100344.34;107909;1259;71379;-68
2024/01/20 05:35:14;;;;;;;50.90;21.80;;;;;;;4.71;50.20;100343.29;107917;1260;61790;-67
2024/01/20 05:37:42;;;;;;;42.10;18.30;;;;;;;4.71;50.14;100354.92;107894;1256;60333;-67
2024/01/20 05:40:10;;;;;;;50.40;19.50;;;;;;;4.70;50.46;100357.90;107941;1255;73778;-67
2024/01/20 05:42:38;;;;;;;39.10;17.10;;;;;;;4.67;50.18;100366.27;107912;1258;70073;-67
2024/01/20 05:45:09;;;;;;;44.80;19.40;;;;;;;4.66;50.05;100369.41;107831;1260;71305;-69
2024/01/20 05:47:36;;;;;;;42.30;17.80;;;;;;;4.67;49.73;100372.19;107851;1256;60931;-65
2024/01/20 05:50:05;;;;;;;37.70;17.60;;;;;;;4.57;49.98;100380.27;107806;1258;59964;-65
2024/01/20 05:52:32;;;;;;;44.00;18.50;;;;;;;4.52;49.88;100382.92;108003;1260;73882;-65
2024/01/20 05:55:00;;;;;;;38.70;16.40;;;;;;;4.40;49.78;100390.33;107778;1258;69986;-67
2024/01/20 05:57:27;;;;;;;40.00;18.10;;;;;;;4.35;49.90;100396.62;107959;1260;71520;-65
2024/01/20 05:59:55;;;;;;;45.70;18.80;;;;;;;4.36;49.78;100395.40;107869;1258;60759;-66
2024/01/20 06:02:22;;;;;;;40.50;17.10;;;;;;;4.30;49.84;100398.91;107819;1261;59836;-66
2024/01/20 06:04:50;;;;;;;36.80;17.20;;;;;;;4.35;50.22;100399.92;107909;1257;72601;-64
2024/01/20 06:07:17;;;;;;;35.70;15.50;;;;;;;4.37;50.15;100408.08;107909;1260;67809;-68
2024/01/20 06:09:45;;;;;;;41.90;17.00;;;;;;;4.38;50.10;100412.94;107673;1258;72682;-67
2024/01/20 06:12:13;;;;;;;39.00;17.00;;;;;;;4.34;49.92;100413.48;107826;1254;61714;-67
2024/01/20 06:14:41;;;;;;;38.00;16.30;;;;;;;4.47;49.22;100423.13;107842;1254;61248;-68
2024/01/20 06:17:08;;;;;;;35.40;15.30;;;;;;;4.43;49.11;100429.41;107875;1259;73765;-67
2024/01/20 06:19:36;;;;;;;36.10;16.00;;;;;;;4.53;48.92;100431.77;107904;1259;68143;-68
2024/01/20 06:22:03;;;;;;;39.60;16.90;;;;;;;4.52;48.87;100431.27;107904;1260;71682;-63
2024/01/20 06:24:31;;;;;;;36.70;16.40;;;;;;;4.66;48.72;100425.95;108047;1257;61987;-66
2024/01/20 06:26:59;;;;;;;42.30;15.90;;;;;;;4.80;48.14;100429.99;107815;1254;60339;-68
2024/01/20 06:29:26;;;;;;;39.70;17.80;;;;;;;4.74;48.24;100431.27;107839;1254;72629;-67
2024/01/20 06:31:54;;;;;;;34.80;14.40;;;;;;;4.76;47.86;100429.68;107903;1253;69219;-67
2024/01/20 06:34:21;;;;;;;32.70;14.50;;;;;;;4.80;47.99;100428.08;107893;1254;72623;-66
2024/01/20 06:36:49;;;;;;;36.70;15.20;;;;;;;4.88;47.71;100436.20;107919;1256;61642;-67
2024/01/20 06:39:17;;;;;;;35.30;14.70;;;;;;;4.98;47.69;100432.09;108000;1259;60338;-67
2024/01/20 06:41:45;;;;;;;33.80;14.50;;;;;;;5.09;47.44;100431.46;107899;1253;73503;-66
2024/01/20 06:44:13;;;;;;;28.70;13.60;;;;;;;5.20;47.30;100436.59;107894;1255;70359;-66
2024/01/20 06:46:40;;;;;;;27.10;13.90;;;;;;;5.19;47.07;100439.38;107903;1254;72715;-67
2024/01/20 06:49:08;;;;;;;31.40;13.90;;;;;;;4.94;47.53;100438.04;108046;1257;59449;-67
2024/01/20 06:51:36;;;;;;;31.70;14.90;;;;;;;4.80;47.91;100445.30;107961;1254;60755;-67
2024/01/20 06:54:03;;;;;;;27.00;13.10;;;;;;;4.76;47.87;100447.42;107952;1260;72550;-66
2024/01/20 06:56:31;;;;;;;31.80;14.70;;;;;;;4.65;48.30;100456.73;107898;1254;70014;-67
2024/01/20 06:58:59;;;;;;;32.30;14.00;;;;;;;4.64;48.24;100462.30;107811;1256;72503;-68
2024/01/20 07:01:26;;;;;;;32.40;15.20;;;;;;;4.60;48.33;100467.90;107840;1259;61091;-67
2024/01/20 07:03:54;;;;;;;33.80;15.80;;;;;;;4.55;48.34;100470.36;107839;1254;60976;-68
2024/01/20 07:06:23;;;;;;;35.30;15.50;;;;;;;4.56;48.07;100474.87;107860;1254;72647;-69
2024/01/20 07:08:51;;;;;;;36.50;15.00;;;;;;;4.70;47.98;100475.13;107908;1254;70028;-67
2024/01/20 07:11:19;;;;;;;34.40;16.20;;;;;;;4.76;48.02;100475.95;107880;1257;72727;-66
2024/01/20 07:13:46;;;;;;;36.00;14.80;;;;;;;4.77;47.76;100479.24;107970;1258;61757;-65
2024/01/20 07:16:14;;;;;;;39.50;17.20;;;;;;;4.76;48.13;100480.47;107944;1254;59031;-65
2024/01/20 07:18:42;;;;;;;33.50;16.30;;;;;;;4.81;48.14;100480.95;107866;1254;73778;-67
2024/01/20 07:21:09;;;;;;;39.70;17.10;;;;;;;4.92;47.90;100485.56;107862;1254;70538;-67
2024/01/20 07:23:37;;;;;;;39.00;16.60;;;;;;;4.93;48.17;100493.56;107880;1254;72774;-66
2024/01/20 07:26:05;;;;;;;34.60;15.20;;;;;;;4.88;48.25;100498.13;108047;1258;60369;-67
2024/01/20 07:28:32;;;;;;;33.70;15.20;;;;;;;4.90;48.21;100506.98;107908;1254;60113;-64
2024/01/20 07:31:00;;;;;;;34.90;16.10;;;;;;;4.85;48.20;100512.77;108110;1254;73737;-68
2024/01/20 07:33:27;;;;;;;38.50;15.60;;;;;;;4.77;48.10;100513.70;108017;1254;69563;-67
2024/01/20 07:35:55;;;;;;;41.80;16.20;;;;;;;4.77;47.86;100515.78;107996;1254;72770;-67
2024/01/20 07:38:22;;;;;;;36.60;16.00;;;;;;;4.81;47.85;100517.50;107873;1260;60405;-67
2024/01/20 07:40:53;;;;;;;42.40;15.70;;;;;;;4.73;48.03;100521.02;107809;1254;59672;-67
2024/01/20 07:43:21;;;;;;;34.70;16.70;;;;;;;4.66;48.28;100526.46;108074;1254;72635;-67
2024/01/20 07:45:48;;;;;;;36.90;15.30;;;;;;;4.88;48.15;100526.13;107907;1254;68735;-67
2024/01/20 07:48:16;;;;;;;34.70;15.70;;;;;;;4.99;47.93;100526.75;107871;1254;72695;-67
2024/01/20 07:50:44;;;;;;;31.20;15.10;;;;;;;4.88;47.74;100530.49;107911;1254;61726;-67
2024/01/20 07:53:11;;;;;;;36.10;16.40;;;;;;;4.82;47.85;100532.44;107818;1254;60448;-67
2024/01/20 07:55:39;;;;;;;37.70;15.70;;;;;;;5.00;47.70;100535.28;107935;1254;73862;-67
2024/01/20 07:58:06;;;;;;;31.60;15.10;;;;;;;5.00;47.36;100538.93;108017;1254;68712;-68
2024/01/20 08:00:34;;;;;;;30.80;14.50;;;;;;;5.00;47.67;100544.31;108053;1256;72655;-67
2024/01/20 08:03:01;;;;;;;39.60;16.80;;;;;;;5.10;47.36;100546.50;107874;1257;60986;-68
2024/01/20 08:05:31;;;;;;;37.50;14.60;;;;;;;5.25;47.13;100544.46;107997;1254;61014;-67
2024/01/20 08:08:02;;;;;;;36.20;15.70;;;;;;;5.45;46.71;100544.11;108023;1254;75047;-68
2024/01/20 08:10:30;;;;;;;31.60;14.60;;;;;;;5.51;46.65;100548.23;107892;1254;72617;-66
2024/01/20 08:12:58;;;;;;;34.40;16.10;;;;;;;5.51;46.88;100546.50;107911;1260;72914;-67
2024/01/20 08:15:27;;;;;;;33.60;14.30;;;;;;;5.49;46.50;100554.52;107920;1260;60576;-67
2024/01/20 08:17:55;;;;;;;30.50;13.50;;;;;;;5.54;46.36;100558.48;108029;1254;60097;-67
2024/01/20 08:20:22;;;;;;;38.10;14.90;;;;;;;5.48;46.41;100556.80;107977;1254;72571;-68
2024/01/20 08:22:50;;;;;;;31.60;13.90;;;;;;;5.44;46.41;100564.48;108025;1254;69003;-67
2024/01/20 08:25:17;;;;;;;27.40;12.70;;;;;;;5.45;46.60;100566.41;108070;1254;72031;-68
2024/01/20 08:27:45;;;;;;;31.40;14.10;;;;;;;5.56;46.88;100573.08;107849;1254;60889;-68
2024/01/20 08:30:13;;;;;;;28.20;12.60;;;;;;;5.62;46.90;100572.16;108210;1254;58345;-68
2024/01/20 08:32:41;;;;;;;33.70;15.10;;;;;;;5.83;46.76;100573.17;107964;1254;72993;-68
2024/01/20 08:35:10;;;;;;;33.30;14.10;;;;;;;5.81;46.09;100571.63;107954;1254;69026;-67
2024/01/20 08:37:37;;;;;;;33.90;15.10;;;;;;;5.78;45.45;100573.76;107997;1253;72659;-67
2024/01/20 08:40:06;;;;;;;36.40;15.80;;;;;;;5.92;45.54;100573.45;107965;1252;60812;-68
2024/01/20 08:42:33;;;;;;;33.50;14.80;;;;;;;6.02;45.75;100575.45;108053;1258;60404;-68
2024/01/20 08:45:01;;;;;;;29.70;13.80;;;;;;;6.15;45.23;100577.22;108058;1254;72702;-68
2024/01/20 08:47:28;;;;;;;36.80;14.40;;;;;;;6.24;45.29;100581.81;108044;1259;68517;-67
2024/01/20 08:49:56;;;;;;;30.60;14.40;;;;;;;6.42;44.53;100580.37;108021;1257;72360;-67
2024/01/20 08:52:24;;;;;;;28.10;13.10;;;;;;;6.60;44.33;100578.74;108094;1257;60529;-67
2024/01/20 08:54:51;;;;;;;30.90;14.40;;;;;;;6.69;44.04;100581.76;108166;1254;59070;-67
2024/01/20 08:57:21;;;;;;;34.70;14.10;;;;;;;6.66;43.95;100577.10;107913;1254;72963;-67
2024/01/20 08:59:49;;;;;;;35.80;14.10;;;;;;;6.71;44.29;100575.62;108018;1254;68215;-66
2024/01/20 09:02:16;;;;;;;36.60;14.30;;;;;;;6.82;44.09;100573.37;108085;1254;70147;-67
2024/01/20 09:04:44;;;;;;;29.10;13.70;;;;;;;6.83;43.62;100572.83;108087;1254;60824;-67
2024/01/20 09:07:11;;;;;;;32.80;13.10;;;;;;;6.78;43.13;100573.79;108031;1253;60313;-71
2024/01/20 09:09:39;;;;;;;31.60;13.30;;;;;;;6.86;43.05;100574.36;108034;1253;72762;-68
2024/01/20 09:12:07;;;;;;;32.20;14.20;;;;;;;6.96;43.21;100571.25;108051;1259;69343;-68
2024/01/20 09:14:36;;;;;;;31.50;13.60;;;;;;;7.00;43.33;100578.35;107963;1254;74648;-67
2024/01/20 09:17:04;;;;;;;30.00;12.70;;;;;;;7.05;43.39;100580.17;108051;1253;60945;-68
2024/01/20 09:19:32;;;;;;;29.70;13.20;;;;;;;7.13;43.36;100586.86;108116;1254;60339;-67
2024/01/20 09:21:59;;;;;;;27.10;12.10;;;;;;;7.18;42.93;100586.27;107788;1254;72689;-67
2024/01/20 09:24:27;;;;;;;32.40;13.50;;;;;;;7.21;42.89;100584.30;108091;1254;69269;-69
2024/01/20 09:26:55;;;;;;;28.10;12.60;;;;;;;7.25;42.45;100586.69;108069;1259;72140;-68
2024/01/20 09:29:22;;;;;;;29.50;12.80;;;;;;;7.07;42.04;100581.36;108018;1257;59618;-67
2024/01/20 09:31:50;;;;;;;31.20;13.90;;;;;;;7.08;42.73;100579.96;107916;1253;60325;-67
2024/01/20 09:34:18;;;;;;;31.50;13.80;;;;;;;7.17;42.88;100575.30;108157;1254;73818;-68
2024/01/20 09:36:45;;;;;;;30.90;13.10;;;;;;;7.27;42.50;100571.11;108119;1255;68659;-66
2024/01/20 09:39:13;;;;;;;29.80;14.10;;;;;;;7.52;42.18;100574.71;108000;1256;71435;-68
2024/01/20 09:41:41;;;;;;;26.40;11.80;;;;;;;7.68;41.45;100575.11;107966;1257;60213;-68
2024/01/20 09:44:09;;;;;;;26.90;11.90;;;;;;;7.72;41.20;100574.17;107890;1253;60148;-68
2024/01/20 09:46:37;;;;;;;24.30;11.10;;;;;;;7.76;40.60;100569.04;107985;1254;73847;-67
2024/01/20 09:49:04;;;;;;;27.20;11.50;;;;;;;7.72;40.34;100566.83;107836;1254;70330;-67
2024/01/20 09:51:32;;;;;;;26.80;11.70;;;;;;;7.76;40.82;100568.16;107988;1254;71211;-67
2024/01/20 09:53:59;;;;;;;25.10;10.90;;;;;;;7.85;40.35;100570.80;107985;1257;60454;-68
2024/01/20 09:56:27;;;;;;;19.30;9.60;;;;;;;7.84;39.82;100571.84;108103;1253;60997;-68
2024/01/20 09:58:57;;;;;;;19.50;8.90;;;;;;;7.70;39.57;100569.85;107979;1253;72193;-67
2024/01/20 10:01:24;;;;;;;20.10;9.20;;;;;;;7.75;39.80;100571.30;108027;1253;70112;-67
2024/01/20 10:03:52;;;;;;;18.40;8.80;;;;;;;7.69;39.80;100572.82;107942;1254;72525;-68
2024/01/20 10:06:19;;;;;;;17.60;8.50;;;;;;;7.70;39.24;100575.27;108050;1259;60359;-68
2024/01/20 10:08:49;;;;;;;19.30;8.80;;;;;;;7.70;38.77;100574.40;107957;1253;59110;-67
2024/01/20 10:11:16;;;;;;;17.60;8.10;;;;;;;7.66;38.77;100574.80;108004;1253;72872;-67
2024/01/20 10:13:47;;;;;;;17.20;7.00;;;;;;;7.68;38.50;100574.94;108081;1254;68306;-68
2024/01/20 10:16:15;;;;;;;17.90;6.50;;;;;;;7.66;38.20;100572.37;108084;1253;71356;-68
2024/01/20 10:18:43;;;;;;;16.50;7.10;;;;;;;7.68;38.13;100570.92;107951;1253;60428;-69
2024/01/20 10:21:12;;;;;;;17.50;7.10;;;;;;;7.66;38.20;100578.29;107932;1260;59713;-68
2024/01/20 10:23:39;;;;;;;12.70;7.00;;;;;;;7.68;38.67;100573.72;107976;1254;74969;-68
2024/01/20 10:26:09;;;;;;;14.70;7.10;;;;;;;7.82;38.29;100571.55;108014;1253;69800;-68
2024/01/20 10:28:36;;;;;;;15.60;7.70;;;;;;;7.74;37.26;100570.30;107967;1253;72037;-69
2024/01/20 10:31:10;;;;;;;16.70;7.30;;;;;;;7.90;37.59;100578.21;108007;1258;60403;-68
2024/01/20 10:33:38;;;;;;;14.00;6.40;;;;;;;8.11;37.51;100580.25;107945;1254;60467;-68
2024/01/20 10:36:06;;;;;;;13.90;6.60;;;;;;;8.14;36.86;100576.34;107918;1254;73905;-68
2024/01/20 10:38:38;;;;;;;14.40;6.50;;;;;;;8.01;36.95;100578.52;107837;1254;72583;-67
2024/01/20 10:41:07;;;;;;;10.70;6.10;;;;;;;7.95;36.64;100582.15;107803;1254;72633;-68
2024/01/20 10:43:39;;;;;;;15.30;6.40;;;;;;;8.06;37.35;100581.06;107800;1254;60509;-67
2024/01/20 10:46:29;;;;;;;12.60;5.90;;;;;;;7.97;36.69;100575.98;107966;1256;60446;-68
2024/01/20 10:48:59;;;;;;;14.90;6.50;;;;;;;8.26;36.32;100577.16;107855;1254;71799;-69
2024/01/20 10:51:28;;;;;;;10.80;5.60;;;;;;;8.45;36.29;100573.48;107905;1260;69204;-68
2024/01/20 10:53:56;;;;;;;10.70;5.10;;;;;;;8.62;35.64;100572.58;107800;1256;71448;-69
2024/01/20 10:56:25;;;;;;;12.00;5.30;;;;;;;8.75;35.37;100571.80;108063;1254;60420;-68
2024/01/20 10:59:09;;;;;;;12.50;5.70;;;;;;;8.84;35.33;100571.21;107725;1254;60445;-68
2024/01/20 11:01:37;;;;;;;12.90;5.50;;;;;;;8.73;34.64;100575.14;107694;1254;73948;-68
2024/01/20 11:04:04;;;;;;;12.30;5.50;;;;;;;8.74;35.41;100571.10;107955;1254;71520;-68
2024/01/20 11:06:37;;;;;;;11.70;5.60;;;;;;;8.78;35.33;100569.98;107766;1257;72759;-68
2024/01/20 11:09:05;;;;;;;15.40;6.00;;;;;;;8.72;34.81;100574.46;107882;1254;60463;-68
2024/01/20 11:11:35;;;;;;;13.70;5.90;;;;;;;8.60;35.48;100573.51;107905;1260;61010;-67
2024/01/20 11:14:03;;;;;;;10.40;5.70;;;;;;;8.64;35.21;100573.77;107932;1254;73371;-70
2024/01/20 11:16:34;;;;;;;13.00;6.30;;;;;;;8.66;35.48;100571.45;107843;1254;69092;-67